createdAt,value
2018-07-30T00:00:04.780Z,23.40
2018-07-30T00:01:04.779Z,23.40
2018-07-30T00:02:05.337Z,23.40
2018-07-30T00:03:05.551Z,23.30
2018-07-30T00:04:05.360Z,23.30
2018-07-30T00:05:05.522Z,23.30
2018-07-30T00:06:04.773Z,23.30
2018-07-30T00:07:04.797Z,23.30
2018-07-30T00:08:04.713Z,23.20
2018-07-30T00:09:04.621Z,23.20
2018-07-30T00:10:04.941Z,23.20
2018-07-30T00:11:05.475Z,23.20
2018-07-30T00:12:05.254Z,23.20
2018-07-30T00:13:05.114Z,23.20
2018-07-30T00:14:10.448Z,23.20
2018-07-30T00:15:05.334Z,23.20
2018-07-30T00:16:04.863Z,23.20
2018-07-30T00:17:04.938Z,23.20
2018-07-30T00:18:04.871Z,23.10
2018-07-30T00:19:09.751Z,23.10
2018-07-30T00:20:05.125Z,23.10
2018-07-30T00:21:04.865Z,23.10
2018-07-30T00:22:04.833Z,23.10
2018-07-30T00:23:04.566Z,23.00
2018-07-30T00:24:05.525Z,23.00
2018-07-30T00:25:05.042Z,23.00
2018-07-30T00:26:04.855Z,22.90
2018-07-30T00:27:04.785Z,22.90
2018-07-30T00:28:04.725Z,22.90
2018-07-30T00:29:04.579Z,22.80
2018-07-30T00:30:05.101Z,22.80
2018-07-30T00:31:04.811Z,22.80
2018-07-30T00:32:05.664Z,22.80
2018-07-30T00:33:05.181Z,22.70
2018-07-30T00:34:05.238Z,22.70
2018-07-30T00:35:05.262Z,22.70
2018-07-30T00:36:08.196Z,22.70
2018-07-30T00:37:04.980Z,22.70
2018-07-30T00:38:04.935Z,22.70
2018-07-30T00:39:05.269Z,22.70
2018-07-30T00:40:05.087Z,22.70
2018-07-30T00:41:04.690Z,22.60
2018-07-30T00:42:04.572Z,22.60
2018-07-30T00:43:05.421Z,22.60
2018-07-30T00:44:04.771Z,22.60
2018-07-30T00:45:05.242Z,22.60
2018-07-30T00:46:05.284Z,22.60
2018-07-30T00:47:05.248Z,22.60
2018-07-30T00:48:05.222Z,22.50
2018-07-30T00:49:05.152Z,22.50
2018-07-30T00:50:05.465Z,22.50
2018-07-30T00:51:05.113Z,22.50
2018-07-30T00:52:04.833Z,22.50
2018-07-30T00:53:04.869Z,22.50
2018-07-30T00:54:05.124Z,22.50
2018-07-30T00:55:05.025Z,22.50
2018-07-30T00:56:05.092Z,22.50
2018-07-30T00:57:04.903Z,22.50
2018-07-30T00:58:05.316Z,22.50
2018-07-30T00:59:05.318Z,22.50
2018-07-30T01:00:06.092Z,22.50
2018-07-30T01:01:05.403Z,22.50
2018-07-30T01:02:05.286Z,22.40
2018-07-30T01:03:05.241Z,22.40
2018-07-30T01:04:05.349Z,22.40
2018-07-30T01:05:04.990Z,22.40
2018-07-30T01:06:09.834Z,22.40
2018-07-30T01:07:05.050Z,22.40
2018-07-30T01:08:04.997Z,22.40
2018-07-30T01:09:05.750Z,22.40
2018-07-30T01:10:04.976Z,22.30
2018-07-30T01:11:05.156Z,22.30
2018-07-30T01:12:05.404Z,22.30
2018-07-30T01:13:04.753Z,22.30
2018-07-30T01:14:04.862Z,22.30
2018-07-30T01:15:05.565Z,22.30
2018-07-30T01:16:05.411Z,22.30
2018-07-30T01:17:05.231Z,22.30
2018-07-30T01:18:05.215Z,22.20
2018-07-30T01:19:05.245Z,22.20
2018-07-30T01:20:04.620Z,22.20
2018-07-30T01:21:05.215Z,22.20
2018-07-30T01:22:05.091Z,22.20
2018-07-30T01:23:04.742Z,22.20
2018-07-30T01:24:04.666Z,22.20
2018-07-30T01:25:05.560Z,22.20
2018-07-30T01:26:04.966Z,22.20
2018-07-30T01:27:04.860Z,22.20
2018-07-30T01:28:05.198Z,22.10
2018-07-30T01:29:04.593Z,22.10
2018-07-30T01:30:04.996Z,22.10
2018-07-30T01:31:05.055Z,22.10
2018-07-30T01:32:10.004Z,22.10
2018-07-30T01:33:05.145Z,22.10
2018-07-30T01:34:05.148Z,22.00
2018-07-30T01:35:05.425Z,22.00
2018-07-30T01:36:05.127Z,22.00
2018-07-30T01:37:05.433Z,22.00
2018-07-30T01:38:05.182Z,22.00
2018-07-30T01:39:05.529Z,22.00
2018-07-30T01:40:05.292Z,22.00
2018-07-30T01:41:04.928Z,22.00
2018-07-30T01:42:05.467Z,21.90
2018-07-30T01:43:05.409Z,21.90
2018-07-30T01:44:05.133Z,21.90
2018-07-30T01:45:05.122Z,21.90
2018-07-30T01:46:04.672Z,21.90
2018-07-30T01:47:05.079Z,21.90
2018-07-30T01:48:04.989Z,21.90
2018-07-30T01:49:04.831Z,21.90
2018-07-30T01:50:04.836Z,21.80
2018-07-30T01:51:04.606Z,21.80
2018-07-30T01:52:05.307Z,21.80
2018-07-30T01:53:04.711Z,21.80
2018-07-30T01:54:04.656Z,21.80
2018-07-30T01:55:04.693Z,21.70
2018-07-30T01:56:04.619Z,21.70
2018-07-30T01:57:04.560Z,21.70
2018-07-30T01:58:05.471Z,21.70
2018-07-30T01:59:04.964Z,21.70
2018-07-30T02:00:05.478Z,21.70
2018-07-30T02:01:05.493Z,21.60
2018-07-30T02:02:05.339Z,21.60
2018-07-30T02:03:05.224Z,21.60
2018-07-30T02:04:05.207Z,21.60
2018-07-30T02:05:04.875Z,21.50
2018-07-30T02:06:05.536Z,21.50
2018-07-30T02:07:05.536Z,21.50
2018-07-30T02:08:05.126Z,21.50
2018-07-30T02:09:05.156Z,21.50
2018-07-30T02:10:05.340Z,21.50
2018-07-30T02:11:04.799Z,21.40
2018-07-30T02:12:05.276Z,21.40
2018-07-30T02:13:05.099Z,21.40
2018-07-30T02:14:04.602Z,21.40
2018-07-30T02:15:04.599Z,21.40
2018-07-30T02:16:05.315Z,21.40
2018-07-30T02:17:05.228Z,21.40
2018-07-30T02:18:05.307Z,21.40
2018-07-30T02:19:05.023Z,21.40
2018-07-30T02:20:05.031Z,21.40
2018-07-30T02:21:04.958Z,21.40
2018-07-30T02:22:05.454Z,21.40
2018-07-30T02:23:05.324Z,21.40
2018-07-30T02:24:05.058Z,21.40
2018-07-30T02:25:05.595Z,21.40
2018-07-30T02:26:04.943Z,21.30
2018-07-30T02:27:09.752Z,21.30
2018-07-30T02:28:04.849Z,21.30
2018-07-30T02:29:05.339Z,21.30
2018-07-30T02:30:04.656Z,21.30
2018-07-30T02:31:04.726Z,21.30
2018-07-30T02:32:05.355Z,21.30
2018-07-30T02:33:05.272Z,21.20
2018-07-30T02:34:05.352Z,21.20
2018-07-30T02:35:05.360Z,21.20
2018-07-30T02:36:04.883Z,21.20
2018-07-30T02:37:04.809Z,21.20
2018-07-30T02:38:05.182Z,21.20
2018-07-30T02:39:05.124Z,21.20
2018-07-30T02:40:05.134Z,21.20
2018-07-30T02:41:04.659Z,21.20
2018-07-30T02:42:04.545Z,21.20
2018-07-30T02:43:04.697Z,21.20
2018-07-30T02:44:10.473Z,21.20
2018-07-30T02:45:05.536Z,21.20
2018-07-30T02:46:05.470Z,21.20
2018-07-30T02:47:04.982Z,21.10
2018-07-30T02:48:05.050Z,21.10
2018-07-30T02:49:05.266Z,21.10
2018-07-30T02:50:05.111Z,21.10
2018-07-30T02:51:05.102Z,21.10
2018-07-30T02:52:05.331Z,21.10
2018-07-30T02:53:04.806Z,21.10
2018-07-30T02:54:05.387Z,21.10
2018-07-30T02:55:05.220Z,21.10
2018-07-30T02:56:05.261Z,21.10
2018-07-30T02:57:05.209Z,21.00
2018-07-30T02:58:05.212Z,21.00
2018-07-30T02:59:04.575Z,21.00
2018-07-30T03:00:05.578Z,21.00
2018-07-30T03:01:05.381Z,21.00
2018-07-30T03:02:04.769Z,21.00
2018-07-30T03:03:05.295Z,20.90
2018-07-30T03:04:04.794Z,20.90
2018-07-30T03:05:05.147Z,20.90
2018-07-30T03:06:05.090Z,20.90
2018-07-30T03:07:05.067Z,20.90
2018-07-30T03:08:05.352Z,20.90
2018-07-30T03:09:04.875Z,20.90
2018-07-30T03:10:05.132Z,20.90
2018-07-30T03:11:05.120Z,20.90
2018-07-30T03:12:05.055Z,20.90
2018-07-30T03:13:05.127Z,20.90
2018-07-30T03:14:10.272Z,20.90
2018-07-30T03:15:05.501Z,20.90
2018-07-30T03:16:05.230Z,20.90
2018-07-30T03:17:05.181Z,20.90
2018-07-30T03:18:05.026Z,20.90
2018-07-30T03:19:04.697Z,20.80
2018-07-30T03:20:05.440Z,20.90
2018-07-30T03:21:04.866Z,20.90
2018-07-30T03:22:05.062Z,20.80
2018-07-30T03:23:05.614Z,20.90
2018-07-30T03:24:05.638Z,20.80
2018-07-30T03:25:05.118Z,20.90
2018-07-30T03:26:05.085Z,20.90
2018-07-30T03:27:05.151Z,20.80
2018-07-30T03:28:05.309Z,20.80
2018-07-30T03:29:05.359Z,20.80
2018-07-30T03:30:05.375Z,20.80
2018-07-30T03:31:05.425Z,20.80
2018-07-30T03:32:05.269Z,20.80
2018-07-30T03:33:05.078Z,20.80
2018-07-30T03:34:04.578Z,20.80
2018-07-30T03:35:05.321Z,20.80
2018-07-30T03:36:04.896Z,20.80
2018-07-30T03:37:04.916Z,20.80
2018-07-30T03:38:05.477Z,20.80
2018-07-30T03:39:05.405Z,20.80
2018-07-30T03:40:05.408Z,20.80
2018-07-30T03:41:04.961Z,20.80
2018-07-30T03:42:04.857Z,20.80
2018-07-30T03:43:04.747Z,20.80
2018-07-30T03:44:05.465Z,20.80
2018-07-30T03:45:05.429Z,20.80
2018-07-30T03:46:05.156Z,20.80
2018-07-30T03:47:04.995Z,20.80
2018-07-30T03:48:05.565Z,20.80
2018-07-30T03:49:05.431Z,20.70
2018-07-30T03:50:05.184Z,20.70
2018-07-30T03:51:05.199Z,20.70
2018-07-30T03:52:04.654Z,20.70
2018-07-30T03:53:05.267Z,20.70
2018-07-30T03:54:05.216Z,20.70
2018-07-30T03:55:05.133Z,20.70
2018-07-30T03:56:04.957Z,20.70
2018-07-30T03:57:04.968Z,20.70
2018-07-30T03:58:05.340Z,20.70
2018-07-30T03:59:05.240Z,20.70
2018-07-30T04:00:04.983Z,20.70
2018-07-30T04:01:05.141Z,20.70
2018-07-30T04:02:04.625Z,20.70
2018-07-30T04:03:05.244Z,20.70
2018-07-30T04:04:05.185Z,20.70
2018-07-30T04:05:05.171Z,20.70
2018-07-30T04:06:05.092Z,20.70
2018-07-30T04:07:04.863Z,20.70
2018-07-30T04:08:04.869Z,20.70
2018-07-30T04:09:04.823Z,20.70
2018-07-30T04:10:05.160Z,20.70
2018-07-30T04:11:05.211Z,20.70
2018-07-30T04:12:05.404Z,20.70
2018-07-30T04:13:05.267Z,20.70
2018-07-30T04:14:05.230Z,20.70
2018-07-30T04:15:04.831Z,20.70
2018-07-30T04:16:05.431Z,20.70
2018-07-30T04:17:05.419Z,20.70
2018-07-30T04:18:05.359Z,20.70
2018-07-30T04:19:04.944Z,20.70
2018-07-30T04:20:05.419Z,20.70
2018-07-30T04:21:05.080Z,20.70
2018-07-30T04:22:04.682Z,20.70
2018-07-30T04:23:04.626Z,20.70
2018-07-30T04:24:04.564Z,20.80
2018-07-30T04:25:05.236Z,20.80
2018-07-30T04:26:04.673Z,20.80
2018-07-30T04:27:04.899Z,20.80
2018-07-30T04:28:05.072Z,20.80
2018-07-30T04:29:05.152Z,20.80
2018-07-30T04:30:05.202Z,20.80
2018-07-30T04:31:05.013Z,20.80
2018-07-30T04:32:04.727Z,20.90
2018-07-30T04:33:05.284Z,20.90
2018-07-30T04:34:05.305Z,21.00
2018-07-30T04:35:05.228Z,21.10
2018-07-30T04:36:08.281Z,21.20
2018-07-30T04:37:05.192Z,21.30
2018-07-30T04:38:05.168Z,21.40
2018-07-30T04:39:04.912Z,21.50
2018-07-30T04:40:05.259Z,21.60
2018-07-30T04:41:05.314Z,21.80
2018-07-30T04:42:05.011Z,21.90
2018-07-30T04:43:04.814Z,22.10
2018-07-30T04:44:04.703Z,22.20
2018-07-30T04:45:04.723Z,22.40
2018-07-30T04:46:05.285Z,22.60
2018-07-30T04:47:04.799Z,22.70
2018-07-30T04:48:04.987Z,22.90
2018-07-30T04:49:05.404Z,23.10
2018-07-30T04:50:05.234Z,23.20
2018-07-30T04:51:05.243Z,23.40
2018-07-30T04:52:05.576Z,23.50
2018-07-30T04:53:05.275Z,23.70
2018-07-30T04:54:04.673Z,23.80
2018-07-30T04:55:05.186Z,23.90
2018-07-30T04:56:05.166Z,24.10
2018-07-30T04:57:05.250Z,24.20
2018-07-30T04:58:05.232Z,24.30
2018-07-30T04:59:05.232Z,24.40
2018-07-30T05:00:04.712Z,24.60
2018-07-30T05:01:05.529Z,24.70
2018-07-30T05:02:05.303Z,24.80
2018-07-30T05:03:05.351Z,24.90
2018-07-30T05:04:04.820Z,25.00
2018-07-30T05:05:04.711Z,25.10
2018-07-30T05:06:04.768Z,25.20
2018-07-30T05:07:05.459Z,25.30
2018-07-30T05:08:05.569Z,25.40
2018-07-30T05:09:05.184Z,25.50
2018-07-30T05:10:05.138Z,25.60
2018-07-30T05:11:04.966Z,25.70
2018-07-30T05:12:04.863Z,25.80
2018-07-30T05:13:04.671Z,25.90
2018-07-30T05:14:05.498Z,26.00
2018-07-30T05:15:05.621Z,26.10
2018-07-30T05:16:05.335Z,26.20
2018-07-30T05:17:05.269Z,26.20
2018-07-30T05:18:05.205Z,26.30
2018-07-30T05:19:05.296Z,26.40
2018-07-30T05:20:04.619Z,26.50
2018-07-30T05:21:05.237Z,26.60
2018-07-30T05:22:05.147Z,26.70
2018-07-30T05:23:10.270Z,26.80
2018-07-30T05:24:04.683Z,26.80
2018-07-30T05:25:04.565Z,26.90
2018-07-30T05:26:05.300Z,27.00
2018-07-30T05:27:04.772Z,27.10
2018-07-30T05:28:05.703Z,27.20
2018-07-30T05:29:05.310Z,27.30
2018-07-30T05:30:05.265Z,27.40
2018-07-30T05:31:04.853Z,27.40
2018-07-30T05:32:05.364Z,27.50
2018-07-30T05:33:05.076Z,27.60
2018-07-30T05:34:05.515Z,27.70
2018-07-30T05:35:05.524Z,27.80
2018-07-30T05:36:05.031Z,27.90
2018-07-30T05:37:05.473Z,28.00
2018-07-30T05:38:05.320Z,28.00
2018-07-30T05:39:05.036Z,28.10
2018-07-30T05:40:05.055Z,28.20
2018-07-30T05:41:04.867Z,28.20
2018-07-30T05:42:05.155Z,28.30
2018-07-30T05:43:05.155Z,28.40
2018-07-30T05:44:05.412Z,28.40
2018-07-30T05:45:05.437Z,28.50
2018-07-30T05:46:04.587Z,28.50
2018-07-30T05:47:04.813Z,28.60
2018-07-30T05:48:04.693Z,28.70
2018-07-30T05:49:04.640Z,28.70
2018-07-30T05:50:04.693Z,28.80
2018-07-30T05:51:04.930Z,28.80
2018-07-30T05:52:05.463Z,28.90
2018-07-30T05:53:05.560Z,28.90
2018-07-30T05:54:05.190Z,28.90
2018-07-30T05:55:05.313Z,29.00
2018-07-30T05:56:05.213Z,29.00
2018-07-30T05:57:04.902Z,29.10
2018-07-30T05:58:04.628Z,29.10
2018-07-30T05:59:05.255Z,29.10
2018-07-30T06:00:04.609Z,29.20
2018-07-30T06:01:05.359Z,29.30
2018-07-30T06:02:05.220Z,29.30
2018-07-30T06:03:10.330Z,29.40
2018-07-30T06:04:04.585Z,29.50
2018-07-30T06:05:05.294Z,29.50
2018-07-30T06:06:05.288Z,29.60
2018-07-30T06:07:05.319Z,29.60
2018-07-30T06:08:05.317Z,29.60
2018-07-30T06:09:04.904Z,29.70
2018-07-30T06:10:05.291Z,29.70
2018-07-30T06:11:05.354Z,29.70
2018-07-30T06:12:04.898Z,29.70
2018-07-30T06:13:05.419Z,29.80
2018-07-30T06:14:05.287Z,29.80
2018-07-30T06:15:05.383Z,29.80
2018-07-30T06:16:05.403Z,29.90
2018-07-30T06:17:04.891Z,30.00
2018-07-30T06:18:08.437Z,30.00
2018-07-30T06:19:05.228Z,30.10
2018-07-30T06:20:05.246Z,30.10
2018-07-30T06:21:05.205Z,30.20
2018-07-30T06:22:04.647Z,30.20
2018-07-30T06:23:04.641Z,30.30
2018-07-30T06:24:04.574Z,30.30
2018-07-30T06:25:05.292Z,30.40
2018-07-30T06:26:04.953Z,30.50
2018-07-30T06:27:05.367Z,30.50
2018-07-30T06:28:05.257Z,30.60
2018-07-30T06:29:05.007Z,30.60
2018-07-30T06:30:05.203Z,30.70
2018-07-30T06:31:05.585Z,30.80
2018-07-30T06:32:05.338Z,30.80
2018-07-30T06:33:05.281Z,30.90
2018-07-30T06:34:05.379Z,31.00
2018-07-30T06:35:05.412Z,31.10
2018-07-30T06:36:05.215Z,31.10
2018-07-30T06:37:04.792Z,31.10
2018-07-30T06:38:05.616Z,31.20
2018-07-30T06:39:05.342Z,31.20
2018-07-30T06:40:05.344Z,31.30
2018-07-30T06:41:05.325Z,31.30
2018-07-30T06:42:05.309Z,31.40
2018-07-30T06:43:05.159Z,31.40
2018-07-30T06:44:04.835Z,31.40
2018-07-30T06:45:04.768Z,31.40
2018-07-30T06:46:05.330Z,31.40
2018-07-30T06:47:04.720Z,31.40
2018-07-30T06:48:05.357Z,31.50
2018-07-30T06:49:05.308Z,31.50
2018-07-30T06:50:05.337Z,31.50
2018-07-30T06:51:05.337Z,31.50
2018-07-30T06:52:05.092Z,31.50
2018-07-30T06:53:04.879Z,31.60
2018-07-30T06:54:04.975Z,31.60
2018-07-30T06:55:05.508Z,31.70
2018-07-30T06:56:05.536Z,31.70
2018-07-30T06:57:05.146Z,31.70
2018-07-30T06:58:05.065Z,31.60
2018-07-30T06:59:05.119Z,31.60
2018-07-30T07:00:05.233Z,31.60
2018-07-30T07:01:05.119Z,31.70
2018-07-30T07:02:04.803Z,31.70
2018-07-30T07:03:05.524Z,31.70
2018-07-30T07:04:05.337Z,31.70
2018-07-30T07:05:05.412Z,31.80
2018-07-30T07:06:05.318Z,31.80
2018-07-30T07:07:05.439Z,31.80
2018-07-30T07:08:05.392Z,31.90
2018-07-30T07:09:05.465Z,31.90
2018-07-30T07:10:04.752Z,32.00
2018-07-30T07:11:05.318Z,32.00
2018-07-30T07:12:04.677Z,32.10
2018-07-30T07:13:04.581Z,32.10
2018-07-30T07:14:04.928Z,32.20
2018-07-30T07:15:05.543Z,32.20
2018-07-30T07:16:05.541Z,32.20
2018-07-30T07:17:05.564Z,32.30
2018-07-30T07:18:05.455Z,32.30
2018-07-30T07:19:04.844Z,32.30
2018-07-30T07:20:04.766Z,32.40
2018-07-30T07:21:05.333Z,32.50
2018-07-30T07:22:05.038Z,32.50
2018-07-30T07:23:05.341Z,32.50
2018-07-30T07:24:04.653Z,32.50
2018-07-30T07:25:06.279Z,32.60
2018-07-30T07:26:06.123Z,32.60
2018-07-30T07:27:04.638Z,32.60
2018-07-30T07:28:05.297Z,32.60
2018-07-30T07:29:05.529Z,32.60
2018-07-30T07:30:04.895Z,32.70
2018-07-30T07:31:04.948Z,32.70
2018-07-30T07:32:04.681Z,32.70
2018-07-30T07:33:05.378Z,32.80
2018-07-30T07:34:05.346Z,32.80
2018-07-30T07:35:04.915Z,32.90
2018-07-30T07:36:05.038Z,32.90
2018-07-30T07:37:04.926Z,32.90
2018-07-30T07:38:04.836Z,33.00
2018-07-30T07:39:05.268Z,33.00
2018-07-30T07:40:05.440Z,33.00
2018-07-30T07:41:04.985Z,33.00
2018-07-30T07:42:04.661Z,33.00
2018-07-30T07:43:04.629Z,33.00
2018-07-30T07:44:05.198Z,33.00
2018-07-30T07:45:05.565Z,33.00
2018-07-30T07:46:05.089Z,33.00
2018-07-30T07:47:05.096Z,33.00
2018-07-30T07:48:05.003Z,33.00
2018-07-30T07:49:05.099Z,33.00
2018-07-30T07:50:05.567Z,33.10
2018-07-30T07:51:04.867Z,33.10
2018-07-30T07:52:05.335Z,33.10
2018-07-30T07:53:05.437Z,33.10
2018-07-30T07:54:04.629Z,33.10
2018-07-30T07:55:04.730Z,33.20
2018-07-30T07:56:05.321Z,33.20
2018-07-30T07:57:04.948Z,33.30
2018-07-30T07:58:05.300Z,33.30
2018-07-30T07:59:04.831Z,33.30
2018-07-30T08:00:05.363Z,33.40
2018-07-30T08:01:04.961Z,33.40
2018-07-30T08:02:05.565Z,33.40
2018-07-30T08:03:05.177Z,33.40
2018-07-30T08:04:05.394Z,33.40
2018-07-30T08:05:05.457Z,33.50
2018-07-30T08:06:05.074Z,33.50
2018-07-30T08:07:05.126Z,33.50
2018-07-30T08:08:05.004Z,33.50
2018-07-30T08:09:04.929Z,33.50
2018-07-30T08:10:05.316Z,33.50
2018-07-30T08:11:05.408Z,33.50
2018-07-30T08:12:05.680Z,33.50
2018-07-30T08:13:05.422Z,33.50
2018-07-30T08:14:05.497Z,33.50
2018-07-30T08:15:05.408Z,33.50
2018-07-30T08:16:05.458Z,33.50
2018-07-30T08:17:05.454Z,33.50
2018-07-30T08:18:05.049Z,33.50
2018-07-30T08:19:04.634Z,33.60
2018-07-30T08:20:05.319Z,33.60
2018-07-30T08:21:05.366Z,33.60
2018-07-30T08:22:05.415Z,33.70
2018-07-30T08:23:04.571Z,33.70
2018-07-30T08:24:05.049Z,33.70
2018-07-30T08:25:05.076Z,33.70
2018-07-30T08:26:05.166Z,33.70
2018-07-30T08:27:05.116Z,33.70
2018-07-30T08:28:04.992Z,33.80
2018-07-30T08:29:05.503Z,33.80
2018-07-30T08:30:05.179Z,33.90
2018-07-30T08:31:05.323Z,33.90
2018-07-30T08:32:04.706Z,33.90
2018-07-30T08:33:05.058Z,33.90
2018-07-30T08:34:05.161Z,33.90
2018-07-30T08:35:05.271Z,34.00
2018-07-30T08:36:05.268Z,34.00
2018-07-30T08:37:05.193Z,34.00
2018-07-30T08:38:05.391Z,34.00
2018-07-30T08:39:05.381Z,34.00
2018-07-30T08:40:05.442Z,34.00
2018-07-30T08:41:05.489Z,34.00
2018-07-30T08:42:04.850Z,34.00
2018-07-30T08:43:04.845Z,34.00
2018-07-30T08:44:05.260Z,34.00
2018-07-30T08:45:05.007Z,34.00
2018-07-30T08:46:05.359Z,34.10
2018-07-30T08:47:05.610Z,34.10
2018-07-30T08:48:05.530Z,34.10
2018-07-30T08:49:04.860Z,34.10
2018-07-30T08:50:05.351Z,34.10
2018-07-30T08:51:05.497Z,34.10
2018-07-30T08:52:04.626Z,34.10
2018-07-30T08:53:05.007Z,34.10
2018-07-30T08:54:04.715Z,34.10
2018-07-30T08:55:05.011Z,34.10
2018-07-30T08:56:05.620Z,34.10
2018-07-30T08:57:05.083Z,34.10
2018-07-30T08:58:05.514Z,34.00
2018-07-30T08:59:05.270Z,34.00
2018-07-30T09:00:05.177Z,34.00
2018-07-30T09:01:05.404Z,34.00
2018-07-30T09:02:05.470Z,34.00
2018-07-30T09:03:05.402Z,34.00
2018-07-30T09:04:04.911Z,34.00
2018-07-30T09:05:05.594Z,33.90
2018-07-30T09:06:04.658Z,33.90
2018-07-30T09:07:05.697Z,33.90
2018-07-30T09:08:05.165Z,33.80
2018-07-30T09:09:05.421Z,33.80
2018-07-30T09:10:05.483Z,33.80
2018-07-30T09:11:04.622Z,33.80
2018-07-30T09:12:05.163Z,33.80
2018-07-30T09:13:04.745Z,33.80
2018-07-30T09:14:05.153Z,33.80
2018-07-30T09:15:04.716Z,33.90
2018-07-30T09:16:05.692Z,33.90
2018-07-30T09:17:04.697Z,33.90
2018-07-30T09:18:04.835Z,34.00
2018-07-30T09:19:05.413Z,34.00
2018-07-30T09:20:05.401Z,34.00
2018-07-30T09:21:05.604Z,34.10
2018-07-30T09:22:05.083Z,34.10
2018-07-30T09:23:05.018Z,34.10
2018-07-30T09:24:05.654Z,34.20
2018-07-30T09:25:05.588Z,34.20
2018-07-30T09:26:05.574Z,34.20
2018-07-30T09:27:05.378Z,34.20
2018-07-30T09:28:04.685Z,34.30
2018-07-30T09:29:05.312Z,34.30
2018-07-30T09:30:04.817Z,34.30
2018-07-30T09:31:04.891Z,34.40
2018-07-30T09:32:04.885Z,34.40
2018-07-30T09:33:05.526Z,34.40
2018-07-30T09:34:04.830Z,34.50
2018-07-30T09:35:05.518Z,34.50
2018-07-30T09:36:05.448Z,34.50
2018-07-30T09:37:05.079Z,34.50
2018-07-30T09:38:05.000Z,34.50
2018-07-30T09:39:05.447Z,34.50
2018-07-30T09:40:04.747Z,34.60
2018-07-30T09:41:05.392Z,34.60
2018-07-30T09:42:05.419Z,34.60
2018-07-30T09:43:06.776Z,34.60
2018-07-30T09:44:04.694Z,34.60
2018-07-30T09:45:05.404Z,34.60
2018-07-30T09:46:04.875Z,34.60
2018-07-30T09:47:04.745Z,34.60
2018-07-30T09:48:05.049Z,34.60
2018-07-30T09:49:04.630Z,34.70
2018-07-30T09:50:05.887Z,34.70
2018-07-30T09:51:05.024Z,34.70
2018-07-30T09:52:05.500Z,34.70
2018-07-30T09:53:05.351Z,34.70
2018-07-30T09:54:06.516Z,34.80
2018-07-30T09:55:04.936Z,34.80
2018-07-30T09:56:05.016Z,34.80
2018-07-30T09:57:05.609Z,34.90
2018-07-30T09:58:05.079Z,34.80
2018-07-30T09:59:11.015Z,34.80
2018-07-30T10:00:04.735Z,34.80
2018-07-30T10:01:05.411Z,34.80
2018-07-30T10:02:05.532Z,34.80
2018-07-30T10:03:05.543Z,34.80
2018-07-30T10:04:05.561Z,34.80
2018-07-30T10:05:05.014Z,34.80
2018-07-30T10:06:05.156Z,34.80
2018-07-30T10:07:04.763Z,34.80
2018-07-30T10:08:05.268Z,34.90
2018-07-30T10:09:05.276Z,34.90
2018-07-30T10:10:05.325Z,35.00
2018-07-30T10:11:04.926Z,35.00
2018-07-30T10:12:04.871Z,35.00
2018-07-30T10:13:04.692Z,35.10
2018-07-30T10:14:05.601Z,35.10
2018-07-30T10:15:04.829Z,35.10
2018-07-30T10:16:05.481Z,35.10
2018-07-30T10:17:04.714Z,35.10
2018-07-30T10:18:05.460Z,35.10
2018-07-30T10:19:05.038Z,35.00
2018-07-30T10:20:05.169Z,35.00
2018-07-30T10:21:04.722Z,34.90
2018-07-30T10:22:05.407Z,34.90
2018-07-30T10:23:05.052Z,34.90
2018-07-30T10:24:05.182Z,34.90
2018-07-30T10:25:05.028Z,34.90
2018-07-30T10:26:05.086Z,34.90
2018-07-30T10:27:04.932Z,34.90
2018-07-30T10:28:05.189Z,34.90
2018-07-30T10:29:04.890Z,34.90
2018-07-30T10:30:05.028Z,34.90
2018-07-30T10:31:04.948Z,35.00
2018-07-30T10:32:04.797Z,35.00
2018-07-30T10:33:04.721Z,35.10
2018-07-30T10:34:05.373Z,35.10
2018-07-30T10:35:05.139Z,35.20
2018-07-30T10:36:05.335Z,35.20
2018-07-30T10:37:05.465Z,35.20
2018-07-30T10:38:05.515Z,35.20
2018-07-30T10:39:04.944Z,35.20
2018-07-30T10:40:05.393Z,35.20
2018-07-30T10:41:04.662Z,35.20
2018-07-30T10:42:10.474Z,35.20
2018-07-30T10:43:04.738Z,35.20
2018-07-30T10:44:04.885Z,35.10
2018-07-30T10:45:05.829Z,35.10
2018-07-30T10:46:05.198Z,35.00
2018-07-30T10:47:05.055Z,35.00
2018-07-30T10:48:05.029Z,34.90
2018-07-30T10:49:04.849Z,34.80
2018-07-30T10:50:05.197Z,34.70
2018-07-30T10:51:04.821Z,34.60
2018-07-30T10:52:05.048Z,34.60
2018-07-30T10:53:04.833Z,34.50
2018-07-30T10:54:04.779Z,34.50
2018-07-30T10:55:04.687Z,34.50
2018-07-30T10:56:04.858Z,34.50
2018-07-30T10:57:05.012Z,34.50
2018-07-30T10:58:05.455Z,34.50
2018-07-30T10:59:05.525Z,34.50
2018-07-30T11:00:04.938Z,34.50
2018-07-30T11:01:05.550Z,34.50
2018-07-30T11:02:04.910Z,34.50
2018-07-30T11:03:04.921Z,34.60
2018-07-30T11:04:05.643Z,34.60
2018-07-30T11:05:04.655Z,34.70
2018-07-30T11:06:04.972Z,34.70
2018-07-30T11:07:05.058Z,34.80
2018-07-30T11:08:05.441Z,34.80
2018-07-30T11:09:04.753Z,34.80
2018-07-30T11:10:05.574Z,34.90
2018-07-30T11:11:04.691Z,34.90
2018-07-30T11:12:04.939Z,34.90
2018-07-30T11:13:04.777Z,35.00
2018-07-30T11:14:04.800Z,35.00
2018-07-30T11:15:05.041Z,35.00
2018-07-30T11:16:04.612Z,35.00
2018-07-30T11:17:04.772Z,34.90
2018-07-30T11:18:05.452Z,34.90
2018-07-30T11:19:05.525Z,34.80
2018-07-30T11:20:04.913Z,34.80
2018-07-30T11:21:04.841Z,34.70
2018-07-30T11:22:05.204Z,34.70
2018-07-30T11:23:05.098Z,34.60
2018-07-30T11:24:04.732Z,34.60
2018-07-30T11:25:04.597Z,34.50
2018-07-30T11:26:04.740Z,34.40
2018-07-30T11:27:05.305Z,34.40
2018-07-30T11:28:05.291Z,34.30
2018-07-30T11:29:04.653Z,34.30
2018-07-30T11:30:04.727Z,34.30
2018-07-30T11:31:05.524Z,34.20
2018-07-30T11:32:05.244Z,34.20
2018-07-30T11:33:05.243Z,34.20
2018-07-30T11:34:04.820Z,34.10
2018-07-30T11:35:04.842Z,34.20
2018-07-30T11:36:04.628Z,34.20
2018-07-30T11:37:05.280Z,34.10
2018-07-30T11:38:04.679Z,34.10
2018-07-30T11:39:05.193Z,34.10
2018-07-30T11:40:04.803Z,34.10
2018-07-30T11:41:05.016Z,34.10
2018-07-30T11:42:05.060Z,34.10
2018-07-30T11:43:04.642Z,34.10
2018-07-30T11:44:05.560Z,34.10
2018-07-30T11:45:05.466Z,34.00
2018-07-30T11:46:04.903Z,34.00
2018-07-30T11:47:04.842Z,34.00
2018-07-30T11:48:05.228Z,34.00
2018-07-30T11:49:05.484Z,34.00
2018-07-30T11:50:04.697Z,34.00
2018-07-30T11:51:05.323Z,33.90
2018-07-30T11:52:05.646Z,33.90
2018-07-30T11:53:04.882Z,33.90
2018-07-30T11:54:05.573Z,33.90
2018-07-30T11:55:04.748Z,33.90
2018-07-30T11:56:04.734Z,33.90
2018-07-30T11:57:05.252Z,33.90
2018-07-30T11:58:04.881Z,33.90
2018-07-30T11:59:05.026Z,33.90
2018-07-30T12:00:05.073Z,33.90
2018-07-30T12:01:05.652Z,33.90
2018-07-30T12:02:05.048Z,33.90
2018-07-30T12:03:05.128Z,33.90
2018-07-30T12:04:04.649Z,33.90
2018-07-30T12:05:05.179Z,33.80
2018-07-30T12:06:04.620Z,33.90
2018-07-30T12:07:06.481Z,33.80
2018-07-30T12:08:04.699Z,33.90
2018-07-30T12:09:05.335Z,33.90
2018-07-30T12:10:04.786Z,33.90
2018-07-30T12:11:05.406Z,33.90
2018-07-30T12:12:04.889Z,33.90
2018-07-30T12:13:05.474Z,33.90
2018-07-30T12:14:05.308Z,34.00
2018-07-30T12:15:05.041Z,34.00
2018-07-30T12:16:05.460Z,34.00
2018-07-30T12:17:05.308Z,34.10
2018-07-30T12:18:05.165Z,34.10
2018-07-30T12:19:04.626Z,34.10
2018-07-30T12:20:04.568Z,34.10
2018-07-30T12:21:06.070Z,34.10
2018-07-30T12:22:04.903Z,34.20
2018-07-30T12:23:05.375Z,34.20
2018-07-30T12:24:05.261Z,34.20
2018-07-30T12:25:05.522Z,34.30
2018-07-30T12:26:04.723Z,34.30
2018-07-30T12:27:04.611Z,34.30
2018-07-30T12:28:04.978Z,34.40
2018-07-30T12:29:04.894Z,34.40
2018-07-30T12:30:04.645Z,34.50
2018-07-30T12:31:04.625Z,34.50
2018-07-30T12:32:05.635Z,34.60
2018-07-30T12:33:04.764Z,34.60
2018-07-30T12:34:05.039Z,34.70
2018-07-30T12:35:05.243Z,34.70
2018-07-30T12:36:04.785Z,34.70
2018-07-30T12:37:04.758Z,34.60
2018-07-30T12:38:05.516Z,34.70
2018-07-30T12:39:05.488Z,34.70
2018-07-30T12:40:05.438Z,34.70
2018-07-30T12:41:05.187Z,34.70
2018-07-30T12:42:04.754Z,34.60
2018-07-30T12:43:04.695Z,34.60
2018-07-30T12:44:05.131Z,34.60
2018-07-30T12:45:04.996Z,34.50
2018-07-30T12:46:04.873Z,34.50
2018-07-30T12:47:04.968Z,34.40
2018-07-30T12:48:09.652Z,34.40
2018-07-30T12:49:05.481Z,34.30
2018-07-30T12:50:04.782Z,34.30
2018-07-30T12:51:04.743Z,34.30
2018-07-30T12:52:05.238Z,34.30